Time;durP1;ratioP1;P1;durP2;ratioP2;P2;SDS_P1;SDS_P2;PMS_P1;PMS_P2;Temp;Humidity;BMP_temperature;BMP_pressure;BME280_temperature;BME280_humidity;BME280_pressure;Samples;Min_cycle;Max_cycle;Signal;HPM_P1;HPM_P2
2023/04/28 04:44:55;;;;;;;4.10;3.20;;;;;;;7.31;100.00;99893.44;108459;1273;23136;-48
2023/04/28 04:47:27;;;;;;;7.30;4.10;;;;;;;7.32;100.00;99894.14;107747;1279;22534;-58
2023/04/28 04:49:54;;;;;;;9.70;3.90;;;;;;;7.33;100.00;99893.80;106794;1276;22659;-49
2023/04/28 04:52:21;;;;;;;7.90;3.60;;;;;;;7.34;100.00;99892.77;107509;1279;22549;-58
2023/04/28 04:54:49;;;;;;;8.00;3.30;;;;;;;7.35;100.00;99896.23;108787;1275;25335;-48
2023/04/28 04:57:17;;;;;;;8.90;3.40;;;;;;;7.36;100.00;99897.65;107570;1278;25272;-49
2023/04/28 05:00:15;;;;;;;3.60;3.00;;;;;;;7.39;100.00;99900.96;108431;1279;23298;-58
2023/04/28 05:02:55;;;;;;;7.70;3.70;;;;;;;7.42;100.00;99903.92;108917;1273;22529;-50
2023/04/28 05:05:22;;;;;;;6.80;3.30;;;;;;;7.44;100.00;99903.08;108290;1279;26612;-58
2023/04/28 05:08:01;;;;;;;6.10;3.40;;;;;;;7.47;100.00;99907.60;108342;1279;22398;-59
2023/04/28 05:10:28;;;;;;;5.70;3.50;;;;;;;7.51;100.00;99904.84;109934;1274;22199;-57
2023/04/28 05:12:55;;;;;;;6.30;3.20;;;;;;;7.53;100.00;99908.67;108834;1272;22379;-59
2023/04/28 05:15:23;;;;;;;6.70;3.70;;;;;;;7.56;100.00;99912.17;109788;1270;22353;-56
2023/04/28 05:18:12;;;;;;;5.40;3.50;;;;;;;7.60;100.00;99914.79;109335;1272;132902;-49
2023/04/28 05:20:40;;;;;;;7.30;3.60;;;;;;;7.63;100.00;99919.33;108810;1272;22799;-57
2023/04/28 05:23:10;;;;;;;8.20;3.10;;;;;;;7.66;100.00;99919.18;109586;1273;23753;-58
2023/04/28 05:25:38;;;;;;;5.90;3.80;;;;;;;7.71;100.00;99919.03;109339;1273;22633;-58
2023/04/28 05:28:10;;;;;;;5.20;3.50;;;;;;;7.76;100.00;99919.91;109132;1274;22579;-49
2023/04/28 05:30:40;;;;;;;8.70;3.50;;;;;;;7.80;100.00;99922.37;108701;1273;23034;-57
2023/04/28 05:33:27;;;;;;;5.80;3.80;;;;;;;7.84;100.00;99919.62;109171;1272;22612;-47
2023/04/28 05:36:51;;;;;;;7.30;4.10;;;;;;;7.91;100.00;99923.48;108715;1273;22455;-48
2023/04/28 05:44:38;;;;;;;5.60;3.80;;;;;;;7.95;100.00;99929.23;109430;1273;22282;-47
2023/04/28 05:47:33;;;;;;;8.70;3.80;;;;;;;7.99;100.00;99936.88;109694;1273;22489;-48
2023/04/28 05:50:07;;;;;;;9.10;3.60;;;;;;;8.01;100.00;99934.82;109743;1276;23708;-57
2023/04/28 05:52:36;;;;;;;8.30;3.20;;;;;;;8.04;100.00;99933.95;109448;1272;23142;-58
2023/04/28 05:59:03;;;;;;;4.30;2.80;;;;;;;8.14;100.00;99926.52;109104;1271;24149;-60
2023/04/28 06:02:37;;;;;;;4.30;3.00;;;;;;;8.21;100.00;99926.20;109204;1276;22349;-49
2023/04/28 06:09:08;;;;;;;6.40;2.90;;;;;;;8.36;100.00;99926.10;109618;1266;22359;-48
2023/04/28 06:11:52;;;;;;;6.90;3.10;;;;;;;8.43;100.00;99929.80;108950;1275;23225;-57
2023/04/28 06:14:21;;;;;;;5.40;3.30;;;;;;;8.47;100.00;99930.32;108883;1274;23087;-47
2023/04/28 06:17:32;;;;;;;9.90;3.40;;;;;;;8.51;99.98;99930.33;109008;1263;23713;-48
2023/04/28 06:20:38;;;;;;;7.10;3.40;;;;;;;8.53;99.98;99928.60;109390;1275;23467;-48
2023/04/28 06:23:05;;;;;;;7.90;3.30;;;;;;;8.56;99.90;99924.95;109236;1273;22303;-58
2023/04/28 06:25:33;;;;;;;12.60;3.60;;;;;;;8.62;99.98;99923.58;109088;1273;22437;-57
2023/04/28 06:28:07;;;;;;;7.70;2.60;;;;;;;8.68;99.74;99919.77;109312;1275;22958;-49
2023/04/28 06:30:38;;;;;;;6.60;2.40;;;;;;;8.75;99.00;99914.38;109034;1269;22363;-48
2023/04/28 06:33:18;;;;;;;8.60;3.00;;;;;;;8.83;98.56;99912.65;108699;1275;24425;-49
2023/04/28 06:35:58;;;;;;;4.60;2.80;;;;;;;8.92;97.67;99913.35;108819;1273;22820;-47
2023/04/28 06:38:26;;;;;;;5.20;2.70;;;;;;;8.96;97.16;99913.36;108893;1273;22526;-48
2023/04/28 06:40:54;;;;;;;8.90;3.30;;;;;;;9.03;97.27;99916.49;109216;1270;22904;-55
2023/04/28 06:43:32;;;;;;;6.70;3.40;;;;;;;9.09;96.69;99913.19;109059;1278;22681;-48
2023/04/28 06:46:43;;;;;;;4.70;2.30;;;;;;;9.15;96.24;99907.97;109470;1272;22538;-59
2023/04/28 06:49:36;;;;;;;6.70;2.40;;;;;;;9.22;96.78;99906.05;108738;1273;22373;-56
2023/04/28 06:52:23;;;;;;;3.50;2.50;;;;;;;9.30;96.02;99911.95;109402;1273;25941;-47
2023/04/28 06:55:23;;;;;;;4.00;2.00;;;;;;;9.40;94.93;99913.52;109197;1278;22819;-47
2023/04/28 06:57:50;;;;;;;7.00;2.70;;;;;;;9.45;94.08;99922.20;109822;1278;23119;-47
2023/04/28 07:00:18;;;;;;;2.50;1.90;;;;;;;9.46;93.73;99914.21;109657;1276;23045;-47
2023/04/28 07:02:45;;;;;;;5.20;2.50;;;;;;;9.51;94.39;99913.67;109012;1273;22943;-50
2023/04/28 07:05:15;;;;;;;5.90;2.50;;;;;;;9.59;94.33;99912.95;108613;1273;22731;-58
2023/04/28 07:07:44;;;;;;;4.10;2.30;;;;;;;9.69;93.93;99912.76;108782;1273;23251;-58
2023/04/28 07:10:15;;;;;;;7.70;3.10;;;;;;;9.80;93.49;99911.17;108774;1273;22512;-55
2023/04/28 07:12:42;;;;;;;6.30;2.60;;;;;;;9.89;92.93;99908.70;109376;1273;22540;-58
2023/04/28 07:15:11;;;;;;;5.90;2.60;;;;;;;9.98;91.67;99907.97;109203;1276;23512;-56
2023/04/28 07:17:40;;;;;;;4.70;2.50;;;;;;;10.00;90.25;99908.14;109369;1272;23728;-47
2023/04/28 07:20:09;;;;;;;6.20;2.70;;;;;;;10.04;90.86;99912.81;108984;1276;25443;-49
2023/04/28 07:22:37;;;;;;;6.40;2.80;;;;;;;10.12;91.01;99909.83;109334;1272;22358;-49
2023/04/28 07:25:05;;;;;;;7.60;2.60;;;;;;;10.23;90.15;99907.54;109674;1272;22452;-48
2023/04/28 07:27:32;;;;;;;4.10;2.10;;;;;;;10.28;89.42;99913.10;109773;1273;24049;-49
2023/04/28 07:29:59;;;;;;;3.00;2.40;;;;;;;10.32;89.83;99909.59;109741;1273;23071;-56
2023/04/28 07:32:34;;;;;;;4.60;2.20;;;;;;;10.37;89.72;99910.95;109760;1276;22439;-57
2023/04/28 07:35:01;;;;;;;5.80;2.70;;;;;;;10.46;89.54;99915.10;109720;1272;22392;-47
2023/04/28 07:37:29;;;;;;;4.20;2.10;;;;;;;10.53;88.50;99909.82;109648;1273;22396;-48
2023/04/28 07:39:58;;;;;;;6.40;2.90;;;;;;;10.55;88.09;99904.92;109505;1273;25291;-48
2023/04/28 07:42:31;;;;;;;;;;;;;;;10.54;87.85;99912.77;109549;1273;23395;-50
2023/04/28 07:44:58;;;;;;;3.10;2.00;;;;;;;10.51;88.05;99916.64;109270;1274;22932;-49
2023/04/28 07:47:55;;;;;;;4.60;2.60;;;;;;;10.47;87.32;99924.33;109707;1276;23213;-47
2023/04/28 07:50:22;;;;;;;3.90;2.20;;;;;;;10.45;87.85;99926.45;109333;1276;22308;-48
2023/04/28 07:52:56;;;;;;;3.00;2.20;;;;;;;10.45;87.75;99930.29;109797;1276;22735;-48
2023/04/28 07:55:48;;;;;;;6.00;2.30;;;;;;;10.49;88.52;99923.63;109338;1273;23631;-57
2023/04/28 07:58:26;;;;;;;4.30;2.40;;;;;;;10.59;88.38;99924.44;109774;1276;22421;-58
2023/04/28 08:01:30;;;;;;;4.90;2.50;;;;;;;10.74;87.65;99925.39;109677;1273;24015;-48
2023/04/28 08:04:10;;;;;;;13.20;2.40;;;;;;;10.82;87.59;99917.31;109692;1270;22411;-58
2023/04/28 08:06:55;;;;;;;3.70;2.20;;;;;;;10.95;88.12;99917.92;109647;1278;22420;-57
2023/04/28 08:09:35;;;;;;;5.70;2.10;;;;;;;11.05;86.17;99917.84;109620;1273;23278;-59
2023/04/28 08:12:32;;;;;;;4.60;2.00;;;;;;;11.08;86.90;99922.53;109367;1275;23039;-49
2023/04/28 08:15:47;;;;;;;2.60;1.80;;;;;;;11.14;87.01;99921.95;109388;1272;23225;-48
2023/04/28 08:18:31;;;;;;;2.60;2.00;;;;;;;11.20;85.71;99917.88;109057;1273;22233;-49
2023/04/28 08:20:59;;;;;;;4.00;2.10;;;;;;;11.29;85.89;99911.88;108850;1272;23875;-58
2023/04/28 08:26:55;;;;;;;3.60;2.20;;;;;;;11.39;83.64;99915.98;109752;1272;22511;-50
2023/04/28 08:32:51;;;;;;;5.40;1.60;;;;;;;11.18;82.97;99926.98;109172;1272;22344;-56
2023/04/28 08:35:19;;;;;;;3.20;1.80;;;;;;;11.15;84.38;99930.67;109467;1273;22423;-59
2023/04/28 08:37:48;;;;;;;3.40;1.70;;;;;;;11.22;84.33;99935.67;109699;1273;22870;-58
2023/04/28 08:40:15;;;;;;;4.20;1.60;;;;;;;11.27;83.03;99931.45;109644;1276;22304;-57
2023/04/28 08:42:44;;;;;;;2.80;1.50;;;;;;;11.24;81.65;99923.62;109756;1273;23107;-57
2023/04/28 08:45:12;;;;;;;3.20;1.90;;;;;;;11.20;83.18;99917.73;109724;1276;22541;-49
2023/04/28 08:47:44;;;;;;;4.90;2.30;;;;;;;11.23;83.65;99914.73;109587;1273;22415;-49
2023/04/28 08:50:20;;;;;;;4.70;2.30;;;;;;;11.36;85.01;99908.50;109840;1273;22437;-58
2023/04/28 08:52:47;;;;;;;6.60;2.00;;;;;;;11.55;83.74;99898.34;109583;1273;22875;-57
2023/04/28 08:55:15;;;;;;;7.40;1.60;;;;;;;11.80;82.35;99893.91;109537;1273;23080;-59
2023/04/28 08:57:50;;;;;;;8.90;1.80;;;;;;;12.03;81.64;99891.38;109564;1273;22294;-61
2023/04/28 09:00:17;;;;;;;2.90;1.70;;;;;;;12.13;80.29;99891.27;109612;1273;22373;-57
2023/04/28 09:02:50;;;;;;;;;;;;;;;12.15;79.66;99894.20;109674;1272;23308;-58
2023/04/28 09:05:43;;;;;;;4.30;2.00;;;;;;;12.16;79.38;99892.61;109748;1273;23361;-56
2023/04/28 09:08:22;;;;;;;3.30;1.80;;;;;;;12.10;77.24;99894.80;109892;1271;23554;-58
2023/04/28 09:11:05;;;;;;;6.80;2.40;;;;;;;11.99;78.22;99891.43;109838;1273;22840;-58
2023/04/28 09:13:33;;;;;;;4.90;2.30;;;;;;;11.99;78.59;99896.51;109748;1277;22402;-48
2023/04/28 09:16:01;;;;;;;4.60;1.50;;;;;;;12.07;79.01;99898.67;109890;1279;22200;-48
2023/04/28 09:18:34;;;;;;;6.00;2.00;;;;;;;12.21;79.23;99902.35;109856;1279;22425;-47
2023/04/28 09:21:06;;;;;;;3.40;1.90;;;;;;;12.34;79.11;99897.10;109676;1274;22244;-48
2023/04/28 09:23:33;;;;;;;2.10;1.30;;;;;;;12.39;78.52;99901.05;109753;1272;22447;-46
2023/04/28 09:26:07;;;;;;;3.10;1.80;;;;;;;12.38;76.79;99899.67;109855;1272;22403;-48
2023/04/28 09:28:35;;;;;;;4.60;1.50;;;;;;;12.40;77.08;99894.74;109634;1276;23485;-48
2023/04/28 09:31:02;;;;;;;4.70;1.70;;;;;;;12.48;77.03;99894.64;109402;1272;22464;-56
2023/04/28 09:33:30;;;;;;;3.10;1.60;;;;;;;12.58;76.46;99891.52;109468;1273;22719;-47
2023/04/28 09:35:57;;;;;;;6.10;1.60;;;;;;;12.67;75.07;99898.39;109513;1270;22768;-47
2023/04/28 09:38:42;;;;;;;4.30;2.00;;;;;;;12.73;75.39;99897.07;108554;1273;24229;-51
2023/04/28 09:41:39;;;;;;;5.20;2.60;;;;;;;12.94;75.96;99896.23;108771;1273;22407;-49
2023/04/28 09:44:31;;;;;;;3.80;2.30;;;;;;;13.12;73.92;99903.27;109514;1273;23281;-49
2023/04/28 09:48:10;;;;;;;6.40;1.90;;;;;;;13.25;74.01;99901.69;109510;1273;22306;-48
2023/04/28 09:51:39;;;;;;;10.00;2.30;;;;;;;13.41;73.94;99908.08;109450;1271;22526;-49
2023/04/28 10:01:18;;;;;;;6.70;2.40;;;;;;;13.32;72.71;99918.21;109578;1273;22351;-48
2023/04/28 10:03:45;;;;;;;8.20;2.90;;;;;;;13.30;70.95;99920.00;109579;1272;22454;-57
2023/04/28 10:06:13;;;;;;;5.50;2.20;;;;;;;13.27;71.33;99906.91;109557;1279;22857;-57
2023/04/28 10:08:40;;;;;;;5.00;2.50;;;;;;;13.23;70.31;99913.63;109658;1276;22392;-48
2023/04/28 10:11:07;;;;;;;3.80;2.50;;;;;;;13.17;71.02;99915.80;109910;1273;22476;-50
2023/04/28 10:13:34;;;;;;;4.30;2.10;;;;;;;13.16;71.81;99907.95;109857;1278;22402;-48
2023/04/28 10:16:01;;;;;;;3.80;2.20;;;;;;;13.18;70.69;99914.05;109993;1275;22392;-59
2023/04/28 10:18:28;;;;;;;4.20;2.30;;;;;;;13.15;70.76;99912.52;109788;1273;22492;-56
2023/04/28 10:20:57;;;;;;;4.20;1.90;;;;;;;13.14;70.76;99919.01;109794;1270;22904;-57
2023/04/28 10:23:30;;;;;;;5.50;2.00;;;;;;;13.12;70.95;99913.63;109769;1273;23246;-57
2023/04/28 10:25:58;;;;;;;6.80;2.50;;;;;;;13.12;71.59;99916.42;109753;1273;22780;-57
2023/04/28 10:28:26;;;;;;;2.30;1.70;;;;;;;13.14;71.10;99912.02;109787;1276;22926;-56
2023/04/28 10:31:12;;;;;;;3.90;1.70;;;;;;;13.13;71.10;99912.02;109838;1278;23730;-56
2023/04/28 10:33:39;;;;;;;3.50;1.90;;;;;;;13.12;71.52;99915.55;109880;1276;22124;-47
2023/04/28 10:36:07;;;;;;;5.10;2.10;;;;;;;13.07;72.07;99916.84;109707;1278;23902;-57
2023/04/28 10:38:34;;;;;;;4.90;1.70;;;;;;;13.03;71.83;99921.45;109896;1279;22202;-56
2023/04/28 10:41:02;;;;;;;10.00;1.90;;;;;;;13.02;70.90;99913.07;109836;1279;22345;-47
2023/04/28 10:43:32;;;;;;;16.90;2.90;;;;;;;13.06;70.66;99914.40;109806;1276;22513;-57
2023/04/28 10:46:04;;;;;;;4.30;2.00;;;;;;;13.14;70.95;99920.92;109528;1277;22377;-48
2023/04/28 10:48:32;;;;;;;6.10;2.20;;;;;;;13.16;70.72;99921.95;109821;1279;22274;-49
2023/04/28 10:51:03;;;;;;;3.30;1.80;;;;;;;13.14;70.64;99925.14;109770;1278;22203;-50
2023/04/28 10:53:42;;;;;;;5.20;1.60;;;;;;;13.10;71.29;99922.73;109758;1278;22288;-49
2023/04/28 10:56:11;;;;;;;13.70;3.20;;;;;;;13.08;70.93;99926.80;109685;1273;23174;-59
2023/04/28 10:58:42;;;;;;;6.00;1.90;;;;;;;13.08;71.14;99936.78;109825;1273;22426;-58
2023/04/28 11:01:35;;;;;;;5.90;1.70;;;;;;;13.07;69.43;99935.94;109677;1273;23009;-58
2023/04/28 11:04:12;;;;;;;4.40;1.70;;;;;;;13.06;71.26;99937.17;109663;1278;22229;-47
2023/04/28 11:06:41;;;;;;;6.20;1.60;;;;;;;13.10;70.98;99932.38;109705;1276;22286;-58
2023/04/28 11:09:11;;;;;;;4.20;2.20;;;;;;;13.15;71.12;99937.02;109709;1276;22286;-58
